Aérodrome :
LOGIN :

S'inscrire | Disclaimer

   EN    FR    IT 

 










Légende :    VFR   VFR Marginal   IFR   IFR Intensif   IFR Très Intensif
Visi : 
Plafond : 
>= 8 km
>= 3000ft
5 à 8 km
1000 à 3000 ft
1500m à 5 km
500 à 1000 ft
800 à 1500m
200 à 500 ft
< 800m
< 200 ft
Symboles :   Orages  Brouillard  Fortes neiges  Fortes précipitations  Vent > 20 kt
SIGMETs :   Divers  Orages  Givrage  Turbulence  Onde Orograph.  Cendres Volcan.






- Altitude de l'aérodrome : 650 ft
- Code IATA : ZJI


LSZL - Locarno

DERNIER METAR :
  • 141120Z 24006KT 9999 FEW090 11/M07 Q1022 RMK BLU+

METARs EXPIRÉS :
  • 141050Z 24006KT 200V260 CAVOK 11/M05 Q1022 RMK BLU
  • 141020Z AUTO 24006KT 9999NDV NCD 10/M08 Q1022 RMK
  • 140950Z 25005KT CAVOK 10/M06 Q1023 RMK BLU
  • 140920Z VRB02KT CAVOK 10/M10 Q1023 RMK BLU
  • 140850Z 06003KT 010V120 CAVOK 09/M07 Q1023 RMK BLU
  • 140820Z 08006KT 040V110 CAVOK 09/M07 Q1023 RMK BLU

TAF TAF LSZL
Valide du 14 à 06h jusqu'au 14 à 15h UTC


140525Z 1406/1415 08005KT CAVOK
TEMPO 1412/1415 9999 FEW060



MET'MAP, la Météo Aéronautique d'un coup d'oeil ! - Copyright ORBIFLY Décembre 2007 - Disclaimer

ORBIFLY MET'MAP TEAM :

Programmation & Développement : Alexandra Zaïnal
Sur une idée originale de : Baudouin d'Aumeries
Assistance à la programmation : Marc-Olivier Méhu
Soutien technique & logistique : Manuel Goepfert

Contact : metmap@orbifly.com




SOURCES & CREDITS :

   NOAA